Time;durP1;ratioP1;P1;durP2;ratioP2;P2;SDS_P1;SDS_P2;PMS_P1;PMS_P2;Temp;Humidity;BMP_temperature;BMP_pressure;BME280_temperature;BME280_humidity;BME280_pressure;Samples;Min_cycle;Max_cycle;Signal;HPM_P1;HPM_P2
2022/05/02 00:00:46;;;;;;;4.40;3.10;;;10.70;1.00;;;10.73;58.23;101614.59;4919121;29;20472;-67
2022/05/02 00:03:15;;;;;;;4.90;3.07;;;10.70;1.00;;;10.69;58.58;101616.00;4919726;29;20429;-68
2022/05/02 00:05:45;;;;;;;4.73;3.73;;;10.70;1.00;;;10.69;58.48;101610.59;4919819;29;20445;-68
2022/05/02 00:08:15;;;;;;;3.77;3.00;;;10.60;1.00;;;10.71;58.41;101608.53;4919537;29;20416;-67
2022/05/02 00:10:43;;;;;;;6.30;3.33;;;10.70;1.00;;;10.70;58.42;101606.84;4919569;29;20556;-67
2022/05/02 00:13:12;;;;;;;4.33;3.73;;;10.70;1.00;;;10.59;58.74;101612.72;4919697;29;20444;-68
2022/05/02 00:15:41;;;;;;;6.67;3.47;;;10.60;1.00;;;10.62;58.94;101608.78;4919227;29;20434;-68
2022/05/02 00:18:11;;;;;;;3.63;3.13;;;10.60;1.00;;;10.56;59.19;101609.53;4919689;29;20970;-68
2022/05/02 00:20:41;;;;;;;5.80;4.13;;;10.60;1.00;;;10.61;59.21;101601.69;4919099;29;20468;-67
2022/05/02 00:23:12;;;;;;;5.30;3.40;;;10.50;1.00;;;10.64;58.81;101602.19;4919117;29;20445;-67
2022/05/02 00:25:42;;;;;;;4.43;3.60;;;10.60;1.00;;;10.66;58.68;101599.28;4919218;29;20867;-67
2022/05/02 00:28:14;;;;;;;7.38;3.95;;;10.60;1.00;;;10.62;58.93;101606.94;4919108;29;20446;-67
2022/05/02 00:30:44;;;;;;;5.90;4.10;;;10.60;1.00;;;10.53;59.13;101594.50;4919290;29;20217;-68
2022/05/02 00:33:15;;;;;;;9.47;4.30;;;10.50;1.00;;;10.42;59.53;101605.78;4918846;29;20528;-67
2022/05/02 00:35:43;;;;;;;5.40;3.17;;;10.50;1.00;;;10.46;59.86;101597.09;4919154;29;20422;-68
2022/05/02 00:38:12;;;;;;;4.00;3.47;;;10.50;1.00;;;10.53;59.23;101599.94;4917963;29;20914;-67
2022/05/02 00:40:41;;;;;;;4.85;4.07;;;10.50;1.00;;;10.51;59.35;101596.56;4918624;29;20536;-67
2022/05/02 00:43:10;;;;;;;5.00;3.43;;;10.50;1.00;;;10.52;59.26;101591.97;4918886;29;20530;-68
2022/05/02 00:45:40;;;;;;;4.43;3.70;;;10.50;1.00;;;10.43;59.19;101592.06;4918934;29;20395;-67
2022/05/02 00:48:09;;;;;;;3.57;3.27;;;10.40;1.00;;;10.44;59.31;101601.03;4918425;29;20408;-67
2022/05/02 00:50:42;;;;;;;4.97;3.40;;;10.40;1.00;;;10.28;59.87;101599.31;4919750;29;20455;-67
2022/05/02 00:53:14;;;;;;;5.83;3.93;;;10.40;1.00;;;10.10;60.42;101598.78;4922035;29;20417;-68
2022/05/02 00:55:45;;;;;;;5.35;3.38;;;10.20;1.00;;;9.98;61.31;101592.94;4920604;29;20580;-68
2022/05/02 00:58:16;;;;;;;2.97;2.72;;;10.10;1.00;;;9.76;62.36;101601.91;4919687;29;20237;-67
2022/05/02 01:00:45;;;;;;;5.70;3.50;;;9.90;1.00;;;9.72;62.52;101595.19;4925483;29;20589;-68
2022/05/02 01:03:15;;;;;;;4.70;3.28;;;9.80;1.00;;;9.65;62.75;101596.06;4929507;29;20208;-67
2022/05/02 01:08:36;;;;;;;3.95;3.35;;;9.60;1.00;;;9.41;63.34;101599.75;4923555;29;20178;-67
2022/05/02 01:11:05;;;;;;;5.03;3.42;;;9.30;1.00;;;9.46;63.05;101594.66;4923970;29;20600;-67
2022/05/02 01:13:37;;;;;;;4.68;3.22;;;9.40;1.00;;;9.30;63.19;101590.19;4923737;29;20185;-66
2022/05/02 01:16:16;;;;;;;3.97;3.05;;;9.40;1.00;;;9.18;63.77;101590.78;4923487;29;20185;-68
2022/05/02 01:18:49;;;;;;;4.38;3.20;;;9.30;1.00;;;9.18;63.97;101590.78;4922924;29;20469;-67
2022/05/02 01:21:21;;;;;;;4.78;3.72;;;9.30;1.00;;;9.16;63.80;101578.28;4924305;29;20210;-67
2022/05/02 01:23:54;;;;;;;4.50;3.45;;;9.20;1.00;;;9.15;63.67;101590.09;4924949;29;20204;-68
2022/05/02 01:26:23;;;;;;;4.15;3.75;;;9.20;1.00;;;9.09;63.87;101585.44;4922869;29;20201;-67
2022/05/02 01:28:55;;;;;;;11.32;3.47;;;9.10;1.00;;;9.06;63.92;101593.00;4923538;29;20192;-67
2022/05/02 01:31:24;;;;;;;3.55;3.17;;;9.10;1.00;;;9.00;63.82;101589.19;4923053;29;20221;-67
2022/05/02 01:33:53;;;;;;;5.25;3.05;;;9.00;1.00;;;9.01;64.03;101585.44;4922296;29;20245;-67
2022/05/02 01:36:24;;;;;;;4.30;3.83;;;9.10;1.00;;;8.97;64.05;101583.25;4923057;29;20223;-68
2022/05/02 01:38:54;;;;;;;8.13;3.67;;;9.00;1.00;;;8.99;64.12;101582.09;4922838;29;20178;-67
2022/05/02 01:41:22;;;;;;;5.43;3.25;;;9.00;1.00;;;9.09;63.88;101571.94;4921590;29;20213;-68
2022/05/02 01:43:51;;;;;;;3.33;2.58;;;9.10;1.00;;;9.16;63.70;101578.28;4921816;29;20190;-68
2022/05/02 01:46:20;;;;;;;5.22;3.10;;;9.10;1.00;;;9.11;63.96;101580.69;4921305;29;20185;-67
2022/05/02 01:48:49;;;;;;;4.57;3.17;;;9.10;1.00;;;9.11;64.08;101575.28;4920210;29;20193;-68
2022/05/02 01:51:18;;;;;;;3.50;2.72;;;9.10;1.00;;;9.09;64.13;101571.06;4920655;29;20268;-67
2022/05/02 01:53:47;;;;;;;6.25;3.15;;;9.10;1.00;;;8.94;64.67;101570.97;4921113;29;20640;-67
2022/05/02 01:56:16;;;;;;;3.30;3.00;;;9.00;1.00;;;8.84;65.24;101574.91;4920973;29;20181;-67
2022/05/02 01:58:45;;;;;;;6.32;3.90;;;9.00;1.00;;;8.76;65.56;101566.84;4920995;29;20186;-67
2022/05/02 02:01:13;;;;;;;3.30;3.00;;;8.80;1.00;;;8.73;65.66;101570.72;4920645;29;20213;-68
2022/05/02 02:03:42;;;;;;;4.57;4.03;;;8.80;1.00;;;8.59;66.37;101564.19;4920848;29;20177;-68
2022/05/02 02:06:10;;;;;;;4.45;3.10;;;8.70;1.00;;;8.64;66.51;101571.75;4918503;29;20353;-67
2022/05/02 02:08:39;;;;;;;5.10;4.10;;;8.70;1.00;;;8.58;66.87;101565.19;4917927;29;20260;-67
2022/05/02 02:11:11;;;;;;;3.83;3.45;;;8.70;1.00;;;8.54;67.13;101565.72;4917181;29;20221;-66
2022/05/02 02:13:40;;;;;;;6.25;3.67;;;8.60;1.00;;;8.57;67.13;101560.81;4917746;29;20204;-67
2022/05/02 02:16:10;;;;;;;2.72;2.50;;;8.70;1.00;;;8.57;67.11;101568.03;4917423;29;20178;-67
2022/05/02 02:18:40;;;;;;;4.10;3.35;;;8.60;1.00;;;8.62;66.90;101557.56;4917398;29;20178;-68
2022/05/02 02:21:11;;;;;;;6.03;3.70;;;8.70;1.00;;;8.59;67.17;101560.63;4917836;29;20775;-68
2022/05/02 02:23:43;;;;;;;4.78;3.28;;;8.70;1.00;;;8.64;66.75;101552.88;4917609;29;20200;-68
2022/05/02 02:26:12;;;;;;;5.40;3.53;;;8.60;1.00;;;8.59;66.96;101560.63;4917277;29;20193;-67
2022/05/02 02:28:41;;;;;;;6.10;3.20;;;8.60;1.00;;;8.50;67.00;101554.44;4917583;29;20184;-67
2022/05/02 02:31:10;;;;;;;6.03;3.80;;;8.60;1.00;;;8.44;67.01;101548.88;4917291;29;20221;-67
2022/05/02 02:33:39;;;;;;;2.92;2.72;;;8.60;1.00;;;8.41;67.22;101549.22;4917368;29;20193;-67
2022/05/02 02:36:08;;;;;;;5.82;4.22;;;8.50;1.00;;;8.37;67.12;101542.50;4917073;29;20197;-66
2022/05/02 02:38:36;;;;;;;5.50;5.00;;;8.50;1.00;;;8.39;66.61;101545.84;4917187;29;20563;-68
2022/05/02 02:41:05;;;;;;;4.32;3.92;;;8.50;1.00;;;8.30;66.66;101553.13;4916909;29;20240;-67
2022/05/02 02:43:35;;;;;;;6.15;4.25;;;8.40;1.00;;;8.24;67.12;101549.22;4917324;29;20714;-67
2022/05/02 02:46:04;;;;;;;4.30;3.35;;;8.40;1.00;;;8.13;67.35;101554.94;4917078;29;20217;-66
2022/05/02 02:48:32;;;;;;;9.55;4.15;;;8.30;1.00;;;8.13;67.75;101552.25;4917288;29;20558;-67
2022/05/02 02:51:02;;;;;;;5.30;4.03;;;8.30;1.00;;;8.14;67.74;101548.56;4917430;29;20280;-68
2022/05/02 02:53:31;;;;;;;8.70;4.10;;;8.30;1.00;;;8.17;67.63;101547.38;4918086;29;20189;-68
2022/05/02 02:55:59;;;;;;;5.03;3.30;;;8.30;1.00;;;8.15;66.77;101544.84;4918130;29;20407;-67
2022/05/02 02:58:28;;;;;;;4.63;3.45;;;8.30;1.00;;;8.25;66.37;101537.41;4917361;29;20189;-68
2022/05/02 03:00:58;;;;;;;3.55;3.13;;;8.30;1.00;;;8.11;66.90;101538.13;4916726;29;20303;-67
2022/05/02 03:03:29;;;;;;;3.45;2.72;;;8.30;1.00;;;7.97;67.42;101541.50;4916920;29;20193;-66
2022/05/02 03:06:03;;;;;;;3.95;3.42;;;8.20;1.00;;;7.88;68.05;101541.69;4915790;29;20663;-67
2022/05/02 03:08:36;;;;;;;4.05;3.58;;;8.10;1.00;;;7.80;68.35;101529.03;4916547;29;20598;-68
2022/05/02 03:11:05;;;;;;;6.47;3.72;;;8.10;1.00;;;7.81;68.04;101538.81;4919477;29;20236;-68
2022/05/02 03:13:34;;;;;;;3.88;3.47;;;8.00;1.00;;;7.93;67.75;101539.31;4920739;29;20182;-68
2022/05/02 03:16:05;;;;;;;7.90;3.10;;;8.00;1.00;;;7.86;67.79;101539.16;4920600;29;20224;-67
2022/05/02 03:18:35;;;;;;;4.63;3.90;;;8.00;1.00;;;7.76;67.77;101535.78;4920785;29;20178;-67
2022/05/02 03:21:03;;;;;;;4.95;3.25;;;8.00;1.00;;;7.79;68.08;101535.47;4920369;29;20232;-67
2022/05/02 03:23:32;;;;;;;4.35;3.30;;;7.90;1.00;;;7.79;67.81;101530.88;4920011;29;20709;-67
2022/05/02 03:26:01;;;;;;;3.97;3.55;;;7.90;1.00;;;7.75;68.35;101542.16;4920218;29;20190;-67
2022/05/02 03:28:29;;;;;;;4.18;3.75;;;7.90;1.00;;;7.64;68.42;101546.06;4920103;29;20244;-67
2022/05/02 03:30:58;;;;;;;3.42;3.10;;;7.80;1.00;;;7.61;68.58;101540.16;4919837;29;20283;-67
2022/05/02 03:33:28;;;;;;;5.15;3.67;;;7.80;1.00;;;7.85;68.31;101545.53;4920143;29;20634;-67
2022/05/02 03:35:57;;;;;;;3.90;3.10;;;7.90;1.00;;;7.90;68.15;101542.34;4920630;29;20673;-67
2022/05/02 03:38:25;;;;;;;4.63;4.07;;;7.90;1.00;;;7.80;68.67;101534.41;4919943;29;20212;-66
2022/05/02 03:40:54;;;;;;;5.35;4.75;;;7.90;1.00;;;7.70;69.23;101544.53;4920045;29;20209;-67
2022/05/02 03:43:23;;;;;;;6.40;5.13;;;7.90;1.00;;;7.59;69.74;101536.78;4919840;29;20185;-67
2022/05/02 03:45:51;;;;;;;5.53;4.97;;;7.80;1.00;;;7.70;69.43;101533.75;4920640;29;20182;-67
2022/05/02 03:48:20;;;;;;;6.50;4.18;;;7.90;1.00;;;7.63;69.50;101530.91;4919742;29;20197;-68
2022/05/02 03:50:50;;;;;;;4.22;3.78;;;7.80;1.00;;;7.75;69.27;101526.00;4919497;29;20616;-67
2022/05/02 03:53:19;;;;;;;6.32;4.22;;;7.70;1.00;;;7.83;69.12;101528.72;4919607;29;20702;-68
2022/05/02 03:55:48;;;;;;;6.00;3.63;;;7.80;1.00;;;7.90;68.94;101524.31;4919658;29;20220;-66
2022/05/02 03:58:17;;;;;;;5.25;3.33;;;7.80;1.00;;;7.94;68.74;101522.97;4919434;29;20241;-67
2022/05/02 04:00:46;;;;;;;3.83;3.53;;;7.90;1.00;;;7.97;68.49;101524.50;4919828;29;20221;-66
2022/05/02 04:03:15;;;;;;;9.23;5.10;;;7.90;1.00;;;8.02;68.37;101525.66;4919597;29;20174;-66
2022/05/02 04:05:43;;;;;;;6.60;4.03;;;8.00;1.00;;;8.36;67.17;101535.41;4919707;29;20184;-67
2022/05/02 04:08:13;;;;;;;4.60;4.07;;;8.10;1.00;;;8.35;66.71;101528.34;4919435;29;20196;-67
2022/05/02 04:10:42;;;;;;;7.15;3.83;;;8.20;1.00;;;8.20;67.33;101541.63;4919034;29;20209;-67
2022/05/02 04:13:17;;;;;;;5.90;4.25;;;8.20;1.00;;;8.59;66.65;101536.34;4917856;29;20269;-67
2022/05/02 04:15:45;;;;;;;5.05;4.20;;;8.20;1.00;;;9.11;64.76;101533.94;4919159;29;20205;-67
2022/05/02 04:18:14;;;;;;;9.57;5.57;;;8.50;1.00;;;9.53;63.54;101533.50;4919140;29;20610;-67
2022/05/02 04:20:43;;;;;;;7.20;5.00;;;8.70;1.00;;;9.99;61.81;101537.00;4919084;29;20225;-67
2022/05/02 04:23:13;;;;;;;5.75;4.82;;;9.00;1.00;;;10.17;60.68;101536.69;4918939;29;20188;-67
2022/05/02 04:25:42;;;;;;;8.80;4.82;;;9.20;1.00;;;10.51;59.88;101542.44;4919099;29;20186;-68
2022/05/02 04:28:12;;;;;;;5.10;4.10;;;9.50;1.00;;;11.02;58.47;101535.22;4919410;29;20589;-66
2022/05/02 04:30:40;;;;;;;5.35;4.15;;;9.80;1.00;;;10.94;58.35;101542.63;4919004;29;20256;-68
2022/05/02 04:33:09;;;;;;;6.78;4.13;;;9.90;1.00;;;11.04;57.82;101540.44;4918583;29;20213;-67
2022/05/02 04:35:38;;;;;;;7.72;4.97;;;10.10;1.00;;;11.43;57.26;101549.03;4919038;29;20194;-67
2022/05/02 04:38:06;;;;;;;6.30;4.80;;;10.10;1.00;;;11.85;55.98;101552.81;4918876;29;20365;-67
2022/05/02 04:40:37;;;;;;;4.75;4.10;;;10.30;1.00;;;12.39;54.73;101553.88;4919029;29;20236;-67
2022/05/02 04:43:06;;;;;;;5.50;5.00;;;10.50;1.00;;;12.72;53.14;101550.56;4918811;29;20189;-67
2022/05/02 04:45:34;;;;;;;4.30;3.90;;;11.10;1.00;;;12.79;52.49;101546.00;4918616;29;20524;-66
2022/05/02 04:48:03;;;;;;;7.53;4.55;;;11.30;1.00;;;12.94;52.31;101549.41;4918836;29;20197;-66
2022/05/02 04:50:32;;;;;;;5.50;4.40;;;11.50;1.00;;;13.08;52.05;101552.00;4918676;29;20657;-67
2022/05/02 04:53:01;;;;;;;10.73;4.60;;;11.70;1.00;;;13.55;50.73;101552.19;4918724;29;20449;-67
2022/05/02 04:55:29;;;;;;;5.40;4.30;;;11.70;1.00;;;13.44;50.76;101557.19;4918785;29;20869;-66
2022/05/02 04:57:59;;;;;;;4.83;4.07;;;11.80;1.00;;;14.11;49.40;101556.22;4918455;29;20465;-66
2022/05/02 05:01:08;;;;;;;7.63;5.23;;;12.00;1.00;;;14.54;48.33;101561.25;4918686;29;20428;-67
2022/05/02 05:03:38;;;;;;;5.63;5.13;;;12.30;1.00;;;14.72;47.90;101559.53;4866500;29;20438;-70
2022/05/02 05:06:07;;;;;;;6.70;4.80;;;12.60;1.00;;;15.04;47.33;101560.50;4877194;29;20444;-73
2022/05/02 05:08:36;;;;;;;8.00;5.30;;;12.70;1.00;;;15.29;46.59;101562.47;4893686;29;20444;-72
2022/05/02 05:11:31;;;;;;;9.30;4.97;;;13.10;1.00;;;15.06;46.62;101569.28;4878832;29;20455;-70
2022/05/02 05:17:32;;;;;;;7.43;4.80;;;13.20;1.00;;;14.69;47.11;101554.50;4870589;29;20436;-70
2022/05/02 05:20:12;;;;;;;5.50;4.03;;;12.80;1.00;;;13.48;49.41;101550.28;4865312;29;20499;-71
2022/05/02 05:23:11;;;;;;;6.00;4.47;;;12.60;1.00;;;11.86;53.39;101568.88;4879542;29;20491;-72
2022/05/02 05:25:51;;;;;;;7.10;5.10;;;12.00;1.00;;;11.36;55.68;101558.13;4863764;29;20541;-72
2022/05/02 05:28:45;;;;;;;8.80;5.40;;;11.40;1.00;;;11.12;56.52;101556.59;4868373;29;20487;-72
2022/05/02 05:31:32;;;;;;;5.43;4.93;;;10.90;1.00;;;11.11;56.32;101561.16;4872672;29;20463;-73
2022/05/02 05:34:15;;;;;;;8.10;5.27;;;10.80;1.00;;;11.10;56.11;101554.06;4841074;29;20879;-71
2022/05/02 05:37:13;;;;;;;4.97;4.20;;;10.90;1.00;;;11.14;56.25;101549.94;4841582;29;20984;-71
2022/05/02 05:39:55;;;;;;;5.20;4.63;;;10.90;1.00;;;11.42;55.89;101552.78;4842077;29;20723;-71
2022/05/02 05:42:40;;;;;;;6.70;4.10;;;11.10;1.00;;;11.83;54.44;101544.03;4841946;29;20509;-71
2022/05/02 05:45:19;;;;;;;5.67;4.80;;;11.30;1.00;;;12.05;53.91;101543.81;4841728;29;20461;-72
2022/05/02 05:48:02;;;;;;;3.97;3.60;;;11.60;1.00;;;12.24;53.54;101546.91;4842149;29;20439;-70
2022/05/02 05:50:33;;;;;;;4.50;3.83;;;11.70;1.00;;;12.07;53.54;101541.75;4874359;29;21007;-70
2022/05/02 05:53:21;;;;;;;7.70;4.50;;;11.60;1.00;;;12.24;53.42;101536.88;4874299;29;20471;-71
2022/05/02 05:56:23;;;;;;;8.13;4.00;;;11.60;1.00;;;12.28;52.85;101530.03;4894129;29;21024;-70
2022/05/02 05:59:07;;;;;;;5.50;4.50;;;11.80;1.00;;;12.09;52.80;101533.44;4857658;29;20453;-72
2022/05/02 06:02:06;;;;;;;5.40;4.90;;;11.90;1.00;;;11.87;53.55;101529.03;4868187;29;20501;-71
2022/05/02 06:04:40;;;;;;;8.17;5.20;;;11.70;1.00;;;11.91;54.09;101530.38;4868616;29;20448;-71
2022/05/02 06:07:12;;;;;;;6.60;4.50;;;11.70;1.00;;;11.89;54.37;101527.00;4872730;29;20952;-73
2022/05/02 06:09:45;;;;;;;5.50;4.77;;;11.70;1.00;;;12.43;53.16;101529.91;4876745;29;20481;-71
2022/05/02 06:12:16;;;;;;;8.77;6.20;;;12.00;1.00;;;12.84;52.31;101528.06;4872553;29;20493;-73
2022/05/02 06:20:34;;;;;;;5.60;4.17;;;13.20;1.00;;;13.39;49.22;101526.22;4877162;29;20436;-71
2022/05/02 06:23:04;;;;;;;5.20;4.37;;;13.00;1.00;;;13.33;49.36;101527.84;4865973;29;20432;-69
2022/05/02 06:25:37;;;;;;;7.07;4.37;;;12.90;1.00;;;13.18;49.15;101534.50;4866086;29;20489;-70
2022/05/02 06:28:08;;;;;;;6.13;4.40;;;12.90;1.00;;;13.11;49.65;101537.19;4865030;29;20451;-73
2022/05/02 06:30:42;;;;;;;5.90;3.97;;;12.90;1.00;;;13.29;48.57;101531.19;4869588;29;20540;-70
2022/05/02 06:33:14;;;;;;;3.50;3.20;;;13.10;1.00;;;13.35;48.83;101542.09;4869543;29;20474;-72
2022/05/02 06:36:16;;;;;;;7.13;5.03;;;13.10;1.00;;;13.37;47.69;101540.00;4863499;29;20508;-73
2022/05/02 06:39:00;;;;;;;5.00;3.80;;;13.10;1.00;;;13.61;47.98;101535.88;4864935;29;20546;-73
2022/05/02 06:41:58;;;;;;;4.83;3.87;;;13.30;1.00;;;13.70;47.99;101542.78;4863058;29;20508;-72
2022/05/02 06:44:43;;;;;;;17.50;5.40;;;13.40;1.00;;;13.80;48.48;101545.09;4861560;29;20539;-72
2022/05/02 06:47:27;;;;;;;3.63;3.10;;;13.50;1.00;;;13.96;47.17;101535.69;4861599;29;20864;-73
2022/05/02 06:50:01;;;;;;;5.30;4.77;;;13.60;1.00;;;14.13;46.80;101545.97;4862157;29;20471;-71
2022/05/02 06:52:39;;;;;;;6.10;3.30;;;13.80;1.00;;;14.08;46.23;101543.03;4862602;29;20579;-72
2022/05/02 06:55:22;;;;;;;11.93;4.40;;;13.80;1.00;;;14.02;46.56;101538.44;4863508;29;20436;-73
2022/05/02 06:58:11;;;;;;;5.30;4.20;;;13.90;1.00;;;14.21;46.66;101542.19;4891888;29;21029;-72
2022/05/02 07:00:56;;;;;;;8.73;4.03;;;14.00;1.00;;;14.08;46.56;101543.03;4865942;29;20488;-74
2022/05/02 07:03:53;;;;;;;5.00;3.80;;;13.70;1.00;;;14.33;44.74;101541.31;4865480;29;20859;-71
2022/05/02 07:06:54;;;;;;;4.10;3.70;;;14.00;1.00;;;14.31;44.32;101542.59;4867699;29;20435;-73
2022/05/02 07:09:32;;;;;;;4.97;3.10;;;14.10;1.00;;;14.39;43.41;101544.28;4874216;29;20455;-71
2022/05/02 07:12:12;;;;;;;4.37;3.30;;;14.20;1.00;;;14.54;44.10;101547.63;4876666;29;20491;-71
2022/05/02 07:15:04;;;;;;;5.20;3.80;;;14.30;1.00;;;14.65;42.46;101545.09;4870421;29;20475;-71
2022/05/02 07:18:05;;;;;;;2.97;2.50;;;14.40;1.00;;;14.83;42.59;101538.97;4861875;29;20439;-71
2022/05/02 07:20:54;;;;;;;3.67;3.20;;;14.40;1.00;;;14.99;41.50;101543.09;4874364;29;20215;-70
2022/05/02 07:23:58;;;;;;;3.53;3.03;;;14.70;1.00;;;14.98;41.53;101533.25;4876136;29;20428;-71
2022/05/02 07:26:31;;;;;;;5.47;4.10;;;14.70;1.00;;;14.56;42.84;101529.19;4868844;29;20466;-72
2022/05/02 07:29:04;;;;;;;3.33;3.00;;;14.60;1.00;;;14.68;42.50;101538.38;4866021;29;20557;-71
2022/05/02 07:31:35;;;;;;;4.40;3.43;;;14.50;1.00;;;15.00;42.59;101532.00;4868374;29;20550;-71
2022/05/02 07:34:04;;;;;;;5.60;3.73;;;14.70;1.00;;;15.35;41.92;101537.88;4877192;29;20438;-71
2022/05/02 07:36:36;;;;;;;15.80;11.53;;;15.00;1.00;;;15.59;41.13;101536.31;4875513;29;20448;-73
2022/05/02 07:39:08;;;;;;;3.60;3.30;;;15.30;1.00;;;15.44;41.62;101528.38;4866615;29;20411;-71
2022/05/02 07:41:42;;;;;;;3.87;3.53;;;15.20;1.00;;;15.78;41.37;101535.34;4880649;29;20494;-73
2022/05/02 07:44:13;;;;;;;4.83;3.70;;;15.40;1.00;;;15.98;41.20;101538.75;4872281;29;20450;-71
2022/05/02 07:46:45;;;;;;;2.40;1.97;;;15.60;1.00;;;15.86;40.98;101532.34;4870426;29;20443;-72
2022/05/02 07:49:17;;;;;;;4.03;3.30;;;15.60;1.00;;;15.76;41.33;101537.47;4874142;29;20446;-70
2022/05/02 07:51:50;;;;;;;3.77;2.73;;;15.60;1.00;;;15.59;42.11;101537.16;4876107;29;20440;-71
2022/05/02 07:54:25;;;;;;;3.33;3.03;;;15.60;1.00;;;15.62;42.92;101535.88;4870835;29;20463;-70
2022/05/02 07:57:04;;;;;;;7.97;4.50;;;15.50;1.00;;;15.69;43.02;101542.13;4871053;29;20444;-70
2022/05/02 07:59:39;;;;;;;3.73;3.33;;;15.50;1.00;;;15.84;42.74;101539.91;4873166;29;20427;-71
2022/05/02 08:02:10;;;;;;;4.43;3.30;;;15.70;1.00;;;15.47;43.83;101543.50;4880291;29;20994;-71
2022/05/02 08:04:40;;;;;;;4.53;3.30;;;15.50;1.00;;;15.51;44.00;101533.84;4880524;29;20414;-71
2022/05/02 08:07:15;;;;;;;8.73;4.73;;;15.40;1.00;;;15.51;44.09;101529.22;4880261;29;20507;-72
2022/05/02 08:10:23;;;;;;;3.40;2.87;;;15.40;1.00;;;15.65;43.33;101533.53;4880960;29;20480;-69
2022/05/02 08:13:03;;;;;;;3.87;3.57;;;15.50;1.00;;;15.42;44.04;101530.53;4882054;29;20959;-70
2022/05/02 08:15:39;;;;;;;4.80;3.30;;;15.30;1.00;;;15.59;43.94;101536.31;4880635;29;20569;-69
2022/05/02 08:19:01;;;;;;;5.87;3.67;;;15.40;1.00;;;15.50;43.30;101526.69;4880235;29;20518;-69
2022/05/02 08:21:38;;;;;;;3.93;2.90;;;15.30;1.00;;;15.87;42.64;101531.31;4880044;29;20510;-70
2022/05/02 08:27:52;;;;;;;5.30;2.67;;;15.60;1.00;;;15.73;43.25;101521.56;4880839;29;20437;-71
2022/05/02 08:30:25;;;;;;;3.80;2.97;;;15.50;1.00;;;16.19;42.37;101523.88;4880252;29;20466;-73
2022/05/02 08:33:04;;;;;;;3.67;3.10;;;15.80;1.00;;;16.30;42.46;101528.63;4879029;29;21012;-70
2022/05/02 08:35:59;;;;;;;4.23;3.00;;;16.00;1.00;;;16.19;42.82;101520.31;4880805;29;20537;-71
2022/05/02 08:38:55;;;;;;;3.50;3.20;;;15.90;1.00;;;16.41;42.00;101525.13;4880752;29;20455;-73
2022/05/02 08:42:32;;;;;;;4.47;3.50;;;16.20;1.00;;;16.56;41.71;101524.78;4884371;29;20494;-73
2022/05/02 08:45:44;;;;;;;5.83;2.70;;;16.20;1.00;;;16.53;41.97;101525.25;4835948;29;20795;-70
2022/05/02 08:52:48;;;;;;;6.73;6.07;;;16.40;1.00;;;16.86;41.55;101506.59;4867545;29;20785;-70
2022/05/02 08:55:45;;;;;;;8.33;3.10;;;16.70;1.00;;;16.75;41.51;101499.16;4869882;29;20456;-73
2022/05/02 08:59:10;;;;;;;3.27;2.90;;;16.70;1.00;;;16.78;41.28;101504.19;4871781;29;20522;-71
2022/05/02 09:02:45;;;;;;;4.03;2.70;;;16.60;1.00;;;16.88;40.92;101507.22;4887410;29;20446;-70
2022/05/02 09:05:59;;;;;;;3.30;2.47;;;16.60;1.00;;;17.01;41.29;101497.16;4835447;29;20771;-70
2022/05/02 09:09:26;;;;;;;3.67;2.73;;;16.70;1.00;;;16.82;40.83;101499.94;4870806;29;20910;-73
2022/05/02 09:12:35;;;;;;;4.07;3.60;;;16.80;1.00;;;16.89;41.03;101494.38;4851004;29;21042;-70
2022/05/02 09:15:36;;;;;;;2.77;2.50;;;16.70;1.00;;;17.06;41.22;101491.84;4852404;29;20465;-72
2022/05/02 09:19:10;;;;;;;10.67;6.50;;;16.80;1.00;;;16.77;41.28;101488.00;4873234;29;20853;-71
2022/05/02 09:22:18;;;;;;;4.10;3.50;;;16.60;1.00;;;17.22;40.52;101483.84;4861359;29;20984;-71
2022/05/02 09:25:05;;;;;;;4.60;3.47;;;16.90;1.00;;;17.24;40.50;101486.31;4871367;29;20450;-71
2022/05/02 09:27:55;;;;;;;3.83;3.30;;;16.90;1.00;;;17.43;40.08;101479.72;4872509;29;20796;-71
2022/05/02 09:31:15;;;;;;;7.63;3.53;;;17.10;1.00;;;17.16;40.41;101473.00;4870745;29;20428;-70
2022/05/02 09:34:10;;;;;;;4.40;3.20;;;17.20;1.00;;;17.36;40.47;101476.28;4874254;29;20772;-72
2022/05/02 09:36:55;;;;;;;7.43;3.03;;;17.10;1.00;;;17.45;39.70;101468.56;4869785;29;20442;-71
2022/05/02 09:39:31;;;;;;;3.83;3.03;;;17.30;1.00;;;17.35;40.15;101467.22;4856359;29;20930;-71
2022/05/02 09:42:35;;;;;;;4.57;2.67;;;17.10;1.00;;;18.00;39.23;101470.03;4864406;29;20565;-70
2022/05/02 09:52:10;;;;;;;3.80;3.40;;;17.60;1.00;;;18.28;38.55;101461.06;4864916;29;20430;-71
2022/05/02 09:58:36;;;;;;;4.33;3.93;;;17.50;1.00;;;17.50;39.94;101450.38;4839173;29;20474;-69
2022/05/02 10:01:17;;;;;;;5.10;4.60;;;17.40;1.00;;;17.73;39.74;101455.09;4870029;29;20463;-71
2022/05/02 10:04:29;;;;;;;3.90;3.50;;;17.50;1.00;;;18.04;38.82;101442.97;4864610;29;20649;-71
2022/05/02 10:07:08;;;;;;;3.63;3.30;;;17.60;1.00;;;18.43;38.49;101436.75;4868191;29;20413;-70
2022/05/02 10:10:05;;;;;;;3.77;3.40;;;17.90;1.00;;;18.07;38.74;101442.50;4869141;29;20485;-71
2022/05/02 10:12:49;;;;;;;6.20;3.37;;;17.90;1.00;;;18.47;38.03;101442.59;4865026;29;20460;-71
2022/05/02 10:15:46;;;;;;;8.33;3.70;;;18.10;1.00;;;18.29;38.54;101438.09;4881250;29;20536;-71
2022/05/02 10:19:03;;;;;;;4.83;4.03;;;18.10;1.00;;;18.42;37.95;101434.25;4872873;29;20431;-71
2022/05/02 10:22:00;;;;;;;4.70;2.70;;;18.20;1.00;;;18.81;37.96;101427.16;4872554;29;20870;-69
2022/05/02 10:25:01;;;;;;;4.20;3.80;;;18.40;1.00;;;18.76;37.84;101429.78;4863014;29;20438;-70
2022/05/02 10:27:41;;;;;;;4.50;4.10;;;18.50;1.00;;;19.13;37.30;101422.00;4873065;29;20443;-70
2022/05/02 10:30:12;;;;;;;5.53;2.90;;;18.70;1.00;;;19.30;36.88;101415.50;4864395;29;20426;-72
2022/05/02 10:32:56;;;;;;;5.03;4.37;;;18.90;1.00;;;18.67;37.16;101413.75;4866059;29;20806;-70
2022/05/02 10:35:28;;;;;;;5.40;3.97;;;18.70;1.00;;;19.02;37.31;101416.34;4860154;29;20841;-69
2022/05/02 10:37:59;;;;;;;4.40;3.63;;;18.70;1.00;;;19.25;37.14;101412.66;4867416;29;20510;-70
2022/05/02 10:40:39;;;;;;;4.13;3.73;;;18.90;1.00;;;19.48;36.41;101406.22;4872344;29;20417;-70
2022/05/02 10:43:11;;;;;;;3.80;3.30;;;19.00;1.00;;;19.69;36.46;101401.91;4867088;29;20417;-71
2022/05/02 10:45:42;;;;;;;4.60;3.50;;;19.20;1.00;;;20.07;35.69;101396.44;4875079;29;20422;-70
2022/05/02 10:48:19;;;;;;;9.97;4.90;;;19.60;1.00;;;20.05;36.20;101395.84;4859284;29;21029;-69
2022/05/02 10:51:04;;;;;;;4.87;3.97;;;19.70;1.00;;;20.56;35.32;101394.66;4880787;29;20462;-71
2022/05/02 10:54:09;;;;;;;3.90;3.60;;;20.00;1.00;;;20.79;34.43;101393.56;4873313;29;20526;-71
2022/05/02 10:56:45;;;;;;;5.90;4.43;;;20.20;1.00;;;20.82;34.64;101390.28;4859794;29;21005;-70
2022/05/02 10:59:22;;;;;;;5.20;3.50;;;20.40;1.00;;;20.77;34.12;101382.78;4873653;29;20676;-71
2022/05/02 11:02:42;;;;;;;3.53;3.20;;;20.30;1.00;;;19.89;35.37;101386.56;4906719;23;20554;-68
2022/05/02 11:05:15;;;;;;;6.63;4.23;;;20.10;1.00;;;19.91;35.90;101383.56;4906090;29;20969;-68
2022/05/02 11:08:09;;;;;;;4.90;3.90;;;19.80;1.00;;;19.87;35.86;101387.91;4915106;29;20424;-68
2022/05/02 11:10:47;;;;;;;4.60;3.83;;;19.80;1.00;;;19.41;35.87;101375.34;4902347;29;20502;-68
2022/05/02 11:13:29;;;;;;;6.87;4.10;;;19.50;1.00;;;19.47;36.09;101377.94;4878893;29;20510;-68
2022/05/02 11:16:19;;;;;;;4.23;3.83;;;19.20;1.00;;;19.66;36.31;101374.94;4877716;29;20506;-68
2022/05/02 11:22:13;;;;;;;6.00;4.27;;;19.70;1.00;;;21.04;34.44;101359.97;4878771;29;20468;-67
2022/05/02 11:24:49;;;;;;;5.07;4.40;;;20.40;1.00;;;20.62;34.51;101362.56;4879487;29;20454;-66
2022/05/02 11:27:54;;;;;;;7.53;3.93;;;20.50;1.00;;;20.21;35.10;101359.28;4883423;29;20431;-66
2022/05/02 11:30:28;;;;;;;4.93;4.43;;;19.90;1.00;;;20.31;35.39;101353.94;4872517;29;20457;-68
2022/05/02 11:33:23;;;;;;;5.63;3.50;;;20.00;1.00;;;20.03;35.37;101351.34;4898016;29;20821;-66
2022/05/02 11:36:00;;;;;;;4.80;3.47;;;19.80;1.00;;;19.36;36.19;101345.91;4900413;29;20436;-66
2022/05/02 11:38:42;;;;;;;4.00;3.60;;;19.40;1.00;;;19.24;36.66;101347.88;4900558;29;20496;-67
2022/05/02 11:41:17;;;;;;;4.27;3.47;;;19.20;1.00;;;19.18;37.08;101346.13;4900552;29;20439;-66
2022/05/02 11:43:48;;;;;;;4.47;3.73;;;19.00;1.00;;;19.21;36.69;101340.16;4900876;29;20484;-67